CheckWX is a tool to help pilots better visualize weather data.  It is not intended as a substitute for an official pre-flight weather briefing.

11:19:50 UTC

KGPT TAF
Gulfport-Biloxi International Airport
Gulfport, Mississippi, USA
KGPT 031120Z 0312/0412 00000KT P6SM FEW120 FM031700 12006KT P6SM FEW250

Apr-3@
12:00 UTC

Apr-3 @ 12:00 UTC

Apr-3@
17:00 UTC

Apr-3 @ 17:00 UTC

TAF KGPT 031120Z 0312/0412 00000KT P6SM FEW120

Expired

Cloud Levels
  • Few at 12,000' AGL

Apr-3@
17:00 UTC

Apr-3 @ 17:00 UTC

Apr-4@
12:00 UTC

Apr-4 @ 12:00 UTC

FM031700 12006KT P6SM FEW250

From

From Standard forecast or significant change

Wind
  • 120° at 6 KTS
Cloud Levels
  • Few at 25,000' AGL